createdAt,value
2022-12-31T00:00:47.044Z,101144.66
2022-12-31T00:03:13.677Z,101133.28
2022-12-31T00:05:40.258Z,101150.16
2022-12-31T00:08:06.660Z,101148.38
2022-12-31T00:10:41.339Z,101149.81
2022-12-31T00:13:08.887Z,101158.25
2022-12-31T00:15:35.327Z,101151.22
2022-12-31T00:18:01.824Z,101160.78
2022-12-31T00:20:28.511Z,101160.09
2022-12-31T00:22:55.079Z,101155.44
2022-12-31T00:25:21.474Z,101167.44
2022-12-31T00:27:48.129Z,101166.38
2022-12-31T00:30:14.580Z,101177.78
2022-12-31T00:32:41.019Z,101181.12
2022-12-31T00:35:07.617Z,101178.81
2022-12-31T00:37:34.050Z,101182.87
2022-12-31T00:40:00.509Z,101183.81
2022-12-31T00:42:27.043Z,101187.16
2022-12-31T00:44:53.517Z,101183.88
2022-12-31T00:47:20.087Z,101187.84
2022-12-31T00:49:46.510Z,101188.03
2022-12-31T00:52:15.935Z,101195.53
2022-12-31T00:54:42.374Z,101185.03
2022-12-31T00:57:08.869Z,101193.03
2022-12-31T00:59:35.345Z,101195.63
2022-12-31T01:02:01.859Z,101195.19
2022-12-31T01:04:28.409Z,101205.63
2022-12-31T01:06:55.020Z,101203.44
2022-12-31T01:09:21.737Z,101201.94
2022-12-31T01:11:49.894Z,101205.31
2022-12-31T01:14:16.815Z,101198.47
2022-12-31T01:16:47.669Z,101200.53
2022-12-31T01:19:18.264Z,101203.78
2022-12-31T01:21:45.503Z,101207.06
2022-12-31T01:24:12.091Z,101193.72
2022-12-31T01:26:38.556Z,101194.81
2022-12-31T01:29:05.478Z,101197.53
2022-12-31T01:31:32.790Z,101196.41
2022-12-31T01:33:59.479Z,101197.94
2022-12-31T01:36:26.814Z,101213.56
2022-12-31T01:38:53.887Z,101206.81
2022-12-31T01:41:21.981Z,101206.75
2022-12-31T01:43:49.235Z,101202.38
2022-12-31T01:46:29.635Z,101206.84
2022-12-31T01:48:57.017Z,101209.00
2022-12-31T01:51:23.997Z,101204.25
2022-12-31T01:53:50.390Z,101212.47
2022-12-31T01:56:16.848Z,101209.00
2022-12-31T01:58:44.011Z,101209.44
2022-12-31T02:01:10.506Z,101207.44
2022-12-31T02:03:36.931Z,101204.00
2022-12-31T02:06:23.638Z,101204.69
2022-12-31T02:08:50.191Z,101216.06
2022-12-31T02:11:29.701Z,101218.72
2022-12-31T02:13:58.761Z,101212.87
2022-12-31T02:16:44.392Z,101213.13
2022-12-31T02:19:26.705Z,101211.75
2022-12-31T02:21:53.131Z,101212.78
2022-12-31T02:24:25.459Z,101216.91
2022-12-31T02:27:09.229Z,101210.34
2022-12-31T02:29:47.903Z,101200.53
2022-12-31T02:32:21.017Z,101197.84
2022-12-31T02:34:50.543Z,101203.63
2022-12-31T02:37:16.983Z,101212.53
2022-12-31T02:39:43.384Z,101217.38
2022-12-31T02:42:10.239Z,101223.47
2022-12-31T02:44:37.174Z,101222.09
2022-12-31T02:47:09.591Z,101210.28
2022-12-31T02:49:57.187Z,101214.09
2022-12-31T02:52:26.745Z,101212.22
2022-12-31T02:55:03.310Z,101214.19
2022-12-31T02:57:50.805Z,101214.84
2022-12-31T03:00:36.080Z,101218.53
2022-12-31T03:03:02.610Z,101202.03
2022-12-31T03:05:29.643Z,101195.72
2022-12-31T03:07:56.148Z,101201.78
2022-12-31T03:10:23.705Z,101187.72
2022-12-31T03:12:51.477Z,101180.38
2022-12-31T03:15:44.353Z,101196.41
2022-12-31T03:18:14.472Z,101205.00
2022-12-31T03:21:00.436Z,101206.06
2022-12-31T03:23:36.129Z,101180.62
2022-12-31T03:26:02.731Z,101190.53
2022-12-31T03:28:30.037Z,101201.66
2022-12-31T03:31:00.344Z,101208.41
2022-12-31T03:33:26.879Z,101196.69
2022-12-31T03:35:53.324Z,101202.22
2022-12-31T03:38:19.972Z,101200.44
2022-12-31T03:40:47.275Z,101199.63
2022-12-31T03:43:13.684Z,101202.87
2022-12-31T03:45:40.175Z,101192.72
2022-12-31T03:48:07.242Z,101195.31
2022-12-31T03:50:33.850Z,101182.09
2022-12-31T03:53:00.264Z,101177.06
2022-12-31T03:55:26.669Z,101188.09
2022-12-31T03:57:53.048Z,101197.00
2022-12-31T04:00:19.964Z,101189.34
2022-12-31T04:02:46.845Z,101181.31
2022-12-31T04:05:13.315Z,101187.28
2022-12-31T04:07:39.989Z,101190.88
2022-12-31T04:10:07.313Z,101189.41
2022-12-31T04:12:33.763Z,101191.47
2022-12-31T04:15:00.263Z,101180.66
2022-12-31T04:17:26.914Z,101187.13
2022-12-31T04:19:53.354Z,101187.31
2022-12-31T04:22:19.819Z,101196.16
2022-12-31T04:24:46.332Z,101190.75
2022-12-31T04:27:12.858Z,101189.00
2022-12-31T04:29:39.493Z,101192.06
2022-12-31T04:32:06.219Z,101200.81
2022-12-31T04:34:32.763Z,101216.94
2022-12-31T04:36:59.152Z,101211.34
2022-12-31T04:39:25.644Z,101207.94
2022-12-31T04:41:52.178Z,101207.41
2022-12-31T04:44:18.761Z,101222.06
2022-12-31T04:46:45.154Z,101219.97
2022-12-31T04:49:11.591Z,101223.31
2022-12-31T04:51:38.085Z,101231.19
2022-12-31T04:54:04.554Z,101230.19
2022-12-31T04:56:31.183Z,101230.19
2022-12-31T04:58:57.610Z,101232.75
2022-12-31T05:01:26.269Z,101244.06
2022-12-31T05:03:52.823Z,101244.16
2022-12-31T05:06:20.196Z,101252.75
2022-12-31T05:08:46.814Z,101252.38
2022-12-31T05:11:13.301Z,101263.59
2022-12-31T05:13:39.841Z,101253.97
2022-12-31T05:16:06.487Z,101258.62
2022-12-31T05:18:33.066Z,101272.19
2022-12-31T05:20:59.486Z,101271.66
2022-12-31T05:23:26.038Z,101261.63
2022-12-31T05:25:52.566Z,101265.41
2022-12-31T05:28:18.985Z,101266.81
2022-12-31T05:30:47.501Z,101260.78
2022-12-31T05:33:13.911Z,101270.44
2022-12-31T05:35:40.327Z,101268.53
2022-12-31T05:38:06.711Z,101276.72
2022-12-31T05:40:33.127Z,101275.84
2022-12-31T05:42:59.543Z,101288.56
2022-12-31T05:45:30.702Z,101297.16
2022-12-31T05:47:57.474Z,101300.56
2022-12-31T05:50:23.875Z,101293.47
2022-12-31T05:52:50.297Z,101292.16
2022-12-31T05:55:16.725Z,101296.94
2022-12-31T05:57:43.125Z,101301.03
2022-12-31T06:00:10.134Z,101304.91
2022-12-31T06:02:36.587Z,101293.75
2022-12-31T06:05:03.069Z,101290.06
2022-12-31T06:07:30.175Z,101291.13
2022-12-31T06:09:56.720Z,101297.78
2022-12-31T06:12:23.141Z,101303.06
2022-12-31T06:14:49.584Z,101302.50
2022-12-31T06:17:16.025Z,101304.56
2022-12-31T06:19:42.426Z,101302.06
2022-12-31T06:22:08.820Z,101287.87
2022-12-31T06:24:35.349Z,101297.78
2022-12-31T06:27:01.884Z,101290.91
2022-12-31T06:29:28.311Z,101288.56
2022-12-31T06:31:54.860Z,101289.06
2022-12-31T06:34:21.288Z,101310.50
2022-12-31T06:36:47.713Z,101310.50
2022-12-31T06:39:14.165Z,101311.13
2022-12-31T06:41:40.684Z,101299.28
2022-12-31T06:44:07.199Z,101305.63
2022-12-31T06:46:33.663Z,101321.44
2022-12-31T06:49:00.180Z,101323.94
2022-12-31T06:51:26.619Z,101325.91
2022-12-31T06:53:53.134Z,101321.91
2022-12-31T06:56:20.919Z,101319.41
2022-12-31T06:58:47.408Z,101317.22
2022-12-31T07:01:30.998Z,101327.59
2022-12-31T07:04:00.818Z,101323.81
2022-12-31T07:06:39.335Z,101321.25
2022-12-31T07:09:08.536Z,101328.66
2022-12-31T07:11:50.685Z,101333.38
2022-12-31T07:14:26.462Z,101334.38
2022-12-31T07:17:04.974Z,101342.66
2022-12-31T07:19:42.272Z,101339.53
2022-12-31T07:22:12.139Z,101347.31
2022-12-31T07:24:38.703Z,101351.72
2022-12-31T07:27:05.096Z,101355.69
2022-12-31T07:29:46.783Z,101350.41
2022-12-31T07:32:33.308Z,101347.09
2022-12-31T07:35:15.208Z,101341.47
2022-12-31T07:37:41.629Z,101348.47
2022-12-31T07:40:17.673Z,101347.09
2022-12-31T07:43:02.964Z,101348.56
2022-12-31T07:45:38.088Z,101352.34
2022-12-31T07:48:04.713Z,101347.62
2022-12-31T07:50:31.306Z,101361.28
2022-12-31T07:52:58.015Z,101364.19
2022-12-31T07:55:24.489Z,101359.78
2022-12-31T07:58:13.988Z,101366.16
2022-12-31T08:00:40.563Z,101364.44
2022-12-31T08:03:15.735Z,101365.28
2022-12-31T08:05:45.202Z,101381.44
2022-12-31T08:08:17.092Z,101375.94
2022-12-31T08:10:59.351Z,101374.00
2022-12-31T08:13:25.819Z,101371.84
2022-12-31T08:15:52.433Z,101380.69
2022-12-31T08:18:18.976Z,101384.34
2022-12-31T08:20:51.321Z,101380.25
2022-12-31T08:23:36.721Z,101378.00
2022-12-31T08:26:03.212Z,101398.66
2022-12-31T08:28:35.717Z,101408.28
2022-12-31T08:31:04.378Z,101410.19
2022-12-31T08:33:30.815Z,101408.78
2022-12-31T08:36:03.660Z,101418.81
2022-12-31T08:38:33.223Z,101421.19
2022-12-31T08:41:03.135Z,101426.66
2022-12-31T08:44:05.367Z,101433.66
2022-12-31T08:46:33.627Z,101426.87
2022-12-31T08:49:00.185Z,101435.94
2022-12-31T08:51:26.784Z,101447.91
2022-12-31T08:53:53.497Z,101444.88
2022-12-31T08:56:25.794Z,101435.50
2022-12-31T08:59:15.511Z,101445.41
2022-12-31T09:02:01.218Z,101445.00
2022-12-31T09:04:30.892Z,101427.97
2022-12-31T09:06:59.174Z,101429.91
2022-12-31T09:09:28.755Z,101445.62
2022-12-31T09:12:12.628Z,101456.06
2022-12-31T09:14:48.999Z,101457.31
2022-12-31T09:17:15.529Z,101445.72
2022-12-31T09:19:41.918Z,101440.25
2022-12-31T09:22:09.929Z,101438.81
2022-12-31T09:24:36.552Z,101435.97
2022-12-31T09:27:29.099Z,101430.16
2022-12-31T09:30:01.685Z,101435.69
2022-12-31T09:32:35.568Z,101430.69
2022-12-31T09:35:20.485Z,101421.94
2022-12-31T09:37:47.896Z,101419.41
2022-12-31T09:40:23.456Z,101416.50
2022-12-31T09:42:57.900Z,101397.16
2022-12-31T09:45:43.397Z,101409.78
2022-12-31T09:48:09.807Z,101393.56
2022-12-31T09:50:39.351Z,101392.69
2022-12-31T09:53:05.756Z,101398.69
2022-12-31T09:55:44.497Z,101378.97
2022-12-31T09:58:14.073Z,101371.38
2022-12-31T10:00:44.629Z,101375.38
2022-12-31T10:03:24.131Z,101379.34
2022-12-31T10:05:53.011Z,101373.34
2022-12-31T10:08:46.196Z,101360.06
2022-12-31T10:11:12.618Z,101357.22
2022-12-31T10:13:44.155Z,101362.66
2022-12-31T10:16:16.183Z,101378.47
2022-12-31T10:18:50.178Z,101367.41
2022-12-31T10:21:35.304Z,101380.78
2022-12-31T10:24:17.155Z,101369.47
2022-12-31T10:27:14.278Z,101382.00
2022-12-31T10:29:43.061Z,101369.22
2022-12-31T10:32:15.533Z,101386.31
2022-12-31T10:34:51.083Z,101374.38
2022-12-31T10:37:18.181Z,101372.47
2022-12-31T10:40:00.776Z,101375.59
2022-12-31T10:42:36.754Z,101369.91
2022-12-31T10:45:26.584Z,101383.38
2022-12-31T10:47:52.978Z,101391.66
2022-12-31T10:50:22.416Z,101371.09
2022-12-31T10:52:58.074Z,101377.78
2022-12-31T10:55:25.468Z,101385.44
2022-12-31T10:58:03.854Z,101376.66
2022-12-31T11:00:54.106Z,101369.37
2022-12-31T11:03:29.065Z,101360.06
2022-12-31T11:06:15.155Z,101356.63
2022-12-31T11:08:57.968Z,101368.34
2022-12-31T11:11:27.409Z,101350.97
2022-12-31T11:14:06.301Z,101377.31
2022-12-31T11:16:32.724Z,101375.75
2022-12-31T11:19:06.318Z,101352.47
2022-12-31T11:21:56.316Z,101348.94
2022-12-31T11:24:28.960Z,101354.81
2022-12-31T11:27:08.398Z,101359.53
2022-12-31T11:29:41.179Z,101354.09
2022-12-31T11:32:07.787Z,101353.28
2022-12-31T11:34:40.269Z,101358.09
2022-12-31T11:37:25.436Z,101360.06
2022-12-31T11:40:01.040Z,101359.81
2022-12-31T11:42:42.930Z,101362.72
2022-12-31T11:45:12.184Z,101356.63
2022-12-31T11:48:28.710Z,101360.56
2022-12-31T11:50:56.102Z,101355.72
2022-12-31T11:53:39.619Z,101341.87
2022-12-31T11:56:06.029Z,101337.09
2022-12-31T11:58:32.507Z,101335.53
2022-12-31T12:01:12.682Z,101341.03
2022-12-31T12:03:43.266Z,101355.66
2022-12-31T12:06:13.276Z,101353.09
2022-12-31T12:08:39.761Z,101357.94
2022-12-31T12:11:25.356Z,101360.25
2022-12-31T12:13:51.919Z,101360.88
2022-12-31T12:16:21.847Z,101369.03
2022-12-31T12:18:51.969Z,101371.38
2022-12-31T12:21:21.894Z,101369.44
2022-12-31T12:23:55.647Z,101374.50
2022-12-31T12:26:38.365Z,101378.59
2022-12-31T12:29:11.744Z,101371.19
2022-12-31T12:31:38.522Z,101375.00
2022-12-31T12:34:05.384Z,101368.09
2022-12-31T12:36:32.010Z,101376.53
2022-12-31T12:39:02.368Z,101370.69
2022-12-31T12:41:28.777Z,101362.31
2022-12-31T12:44:01.915Z,101352.84
2022-12-31T12:46:32.406Z,101365.87
2022-12-31T12:48:58.858Z,101366.38
2022-12-31T12:51:28.015Z,101353.47
2022-12-31T12:54:04.536Z,101359.53
2022-12-31T12:56:35.209Z,101361.91
2022-12-31T12:59:17.368Z,101362.13
2022-12-31T13:01:52.871Z,101356.06
2022-12-31T13:04:42.546Z,101352.28
2022-12-31T13:07:27.821Z,101349.31
2022-12-31T13:10:12.687Z,101355.53
2022-12-31T13:15:42.591Z,101343.34
2022-12-31T13:18:18.260Z,101343.44
2022-12-31T13:20:47.455Z,101340.69
2022-12-31T13:23:19.620Z,101354.50
2022-12-31T13:25:52.151Z,101360.84
2022-12-31T13:28:20.978Z,101363.50
2022-12-31T13:30:50.066Z,101375.97
2022-12-31T13:33:20.639Z,101373.91
2022-12-31T13:35:51.857Z,101370.03
2022-12-31T13:38:19.532Z,101367.94
2022-12-31T13:41:00.739Z,101374.19
2022-12-31T13:43:30.224Z,101363.38
2022-12-31T13:46:23.149Z,101355.50
2022-12-31T13:48:53.298Z,101352.81
2022-12-31T13:51:33.384Z,101350.91
2022-12-31T13:54:06.988Z,101347.91
2022-12-31T13:56:37.476Z,101355.50
2022-12-31T13:59:22.853Z,101359.06
2022-12-31T14:01:53.430Z,101375.06
2022-12-31T14:04:37.132Z,101385.31
2022-12-31T14:07:10.753Z,101385.75
2022-12-31T14:09:37.832Z,101390.66
2022-12-31T14:12:20.201Z,101382.47
2022-12-31T14:14:53.565Z,101378.59
2022-12-31T14:17:20.005Z,101381.97
2022-12-31T14:20:15.944Z,101387.00
2022-12-31T14:22:45.828Z,101384.62
2022-12-31T14:25:17.531Z,101383.19
2022-12-31T14:27:43.942Z,101389.44
2022-12-31T14:30:19.912Z,101381.84
2022-12-31T14:32:46.393Z,101383.88
2022-12-31T14:35:22.223Z,101384.00
2022-12-31T14:37:55.703Z,101389.22
2022-12-31T14:40:41.816Z,101398.00
2022-12-31T14:43:14.175Z,101390.78
2022-12-31T14:46:00.860Z,101392.50
2022-12-31T14:48:29.549Z,101381.34
2022-12-31T14:50:55.990Z,101373.06
2022-12-31T14:53:23.503Z,101376.09
2022-12-31T14:55:59.783Z,101373.88
2022-12-31T14:58:30.754Z,101379.53
2022-12-31T15:00:58.465Z,101381.78
2022-12-31T15:03:36.331Z,101377.66
2022-12-31T15:06:05.505Z,101382.59
2022-12-31T15:08:35.841Z,101383.03
2022-12-31T15:11:05.215Z,101387.66
2022-12-31T15:13:52.242Z,101386.34
2022-12-31T15:16:30.913Z,101383.19
2022-12-31T15:18:57.332Z,101373.91
2022-12-31T15:21:23.663Z,101368.53
2022-12-31T15:23:50.085Z,101372.91
2022-12-31T15:26:21.177Z,101377.53
2022-12-31T15:28:54.059Z,101400.41
2022-12-31T15:31:20.699Z,101403.16
2022-12-31T15:33:57.566Z,101397.59
2022-12-31T15:36:24.989Z,101412.41
2022-12-31T15:38:51.470Z,101407.72
2022-12-31T15:41:37.479Z,101401.28
2022-12-31T15:44:08.733Z,101392.28
2022-12-31T15:46:37.355Z,101403.28
2022-12-31T15:49:24.086Z,101405.31
2022-12-31T15:51:51.867Z,101412.78
2022-12-31T15:54:25.912Z,101419.69
2022-12-31T15:56:52.442Z,101419.16
2022-12-31T15:59:18.879Z,101422.28
2022-12-31T16:01:45.435Z,101393.28
2022-12-31T16:04:33.491Z,101395.81
2022-12-31T16:07:03.860Z,101397.62
2022-12-31T16:09:30.827Z,101407.72
2022-12-31T16:11:57.470Z,101399.06
2022-12-31T16:14:25.290Z,101401.16
2022-12-31T16:16:55.506Z,101408.56
2022-12-31T16:19:54.477Z,101408.28
2022-12-31T16:22:27.498Z,101406.50
2022-12-31T16:25:28.891Z,101395.59
2022-12-31T16:27:41.381Z,101399.94
2022-12-31T16:30:15.841Z,101398.25
2022-12-31T16:32:42.301Z,101399.06
2022-12-31T16:35:25.266Z,101404.41
2022-12-31T16:38:10.586Z,101395.50
2022-12-31T16:40:37.025Z,101390.34
2022-12-31T16:43:03.727Z,101389.31
2022-12-31T16:45:33.892Z,101385.19
2022-12-31T16:48:13.012Z,101396.44
2022-12-31T16:50:46.490Z,101407.22
2022-12-31T16:53:13.121Z,101418.84
2022-12-31T16:55:39.512Z,101422.69
2022-12-31T16:58:12.422Z,101421.56
2022-12-31T17:00:38.866Z,101417.66
2022-12-31T17:03:15.585Z,101410.28
2022-12-31T17:05:55.354Z,101408.78
2022-12-31T17:08:23.740Z,101399.75
2022-12-31T17:10:50.362Z,101401.31
2022-12-31T17:13:29.367Z,101420.31
2022-12-31T17:15:56.620Z,101435.81
2022-12-31T17:18:24.200Z,101434.19
2022-12-31T17:20:51.452Z,101422.44
2022-12-31T17:23:21.147Z,101410.59
2022-12-31T17:25:47.533Z,101412.44
2022-12-31T17:28:23.843Z,101412.19
2022-12-31T17:30:50.401Z,101415.06
2022-12-31T17:33:19.915Z,101430.56
2022-12-31T17:35:46.305Z,101435.25
2022-12-31T17:38:22.087Z,101438.56
2022-12-31T17:40:52.958Z,101441.47
2022-12-31T17:43:20.316Z,101438.22
2022-12-31T17:45:46.911Z,101438.56
2022-12-31T17:48:14.175Z,101446.94
2022-12-31T17:50:50.582Z,101448.31
2022-12-31T17:53:17.108Z,101443.19
2022-12-31T17:55:45.434Z,101440.31
2022-12-31T17:58:29.837Z,101447.97
2022-12-31T18:00:56.753Z,101446.59
2022-12-31T18:03:23.184Z,101446.06
2022-12-31T18:05:49.711Z,101447.37
2022-12-31T18:08:16.150Z,101439.94
2022-12-31T18:10:42.885Z,101443.91
2022-12-31T18:13:35.887Z,101429.19
2022-12-31T18:16:02.378Z,101438.72
2022-12-31T18:18:29.729Z,101426.53
2022-12-31T18:21:06.675Z,101431.94
2022-12-31T18:23:43.275Z,101434.31
2022-12-31T18:26:12.038Z,101435.59
2022-12-31T18:28:38.453Z,101443.06
2022-12-31T18:31:04.856Z,101447.78
2022-12-31T18:33:31.362Z,101444.03
2022-12-31T18:36:08.822Z,101444.34
2022-12-31T18:38:36.300Z,101444.00
2022-12-31T18:41:02.711Z,101447.97
2022-12-31T18:43:29.193Z,101450.34
2022-12-31T18:45:55.762Z,101448.09
2022-12-31T18:48:22.227Z,101459.19
2022-12-31T18:50:48.720Z,101469.22
2022-12-31T18:53:16.368Z,101469.38
2022-12-31T18:55:51.847Z,101468.00
2022-12-31T18:58:18.400Z,101463.81
2022-12-31T19:00:44.971Z,101472.97
2022-12-31T19:03:15.218Z,101475.50
2022-12-31T19:05:41.810Z,101480.47
2022-12-31T19:08:08.328Z,101470.25
2022-12-31T19:10:34.842Z,101470.47
2022-12-31T19:13:01.260Z,101471.81
2022-12-31T19:15:27.652Z,101472.75
2022-12-31T19:17:54.094Z,101473.06
2022-12-31T19:20:20.536Z,101477.53
2022-12-31T19:22:47.479Z,101474.44
2022-12-31T19:25:17.596Z,101465.78
2022-12-31T19:27:44.000Z,101464.63
2022-12-31T19:30:29.689Z,101463.03
2022-12-31T19:32:56.185Z,101463.81
2022-12-31T19:35:22.658Z,101462.59
2022-12-31T19:37:49.671Z,101456.19
2022-12-31T19:40:16.933Z,101462.69
2022-12-31T19:42:43.819Z,101467.72
2022-12-31T19:45:12.922Z,101487.47
2022-12-31T19:47:39.342Z,101480.03
2022-12-31T19:50:05.938Z,101484.06
2022-12-31T19:52:32.359Z,101476.50
2022-12-31T19:54:58.772Z,101476.28
2022-12-31T19:57:25.265Z,101472.47
2022-12-31T19:59:51.662Z,101464.44
2022-12-31T20:02:18.253Z,101449.12
2022-12-31T20:04:44.772Z,101432.44
2022-12-31T20:07:11.325Z,101437.72
2022-12-31T20:09:37.749Z,101440.31
2022-12-31T20:12:04.255Z,101440.16
2022-12-31T20:14:30.710Z,101448.53
2022-12-31T20:16:57.177Z,101436.84
2022-12-31T20:19:23.612Z,101439.56
2022-12-31T20:21:50.029Z,101442.63
2022-12-31T20:24:16.537Z,101433.75
2022-12-31T20:26:42.933Z,101434.41
2022-12-31T20:29:09.344Z,101444.00
2022-12-31T20:31:35.790Z,101441.47
2022-12-31T20:34:02.241Z,101442.09
2022-12-31T20:36:28.669Z,101450.41
2022-12-31T20:38:55.104Z,101447.09
2022-12-31T20:41:21.930Z,101448.16
2022-12-31T20:43:48.480Z,101450.84
2022-12-31T20:46:19.537Z,101462.50
2022-12-31T20:48:46.382Z,101455.00
2022-12-31T20:51:13.512Z,101459.41
2022-12-31T20:53:39.931Z,101467.41
2022-12-31T20:56:06.749Z,101459.56
2022-12-31T20:58:33.290Z,101462.94
2022-12-31T21:00:59.842Z,101451.91
2022-12-31T21:04:02.843Z,101451.34
2022-12-31T21:06:12.932Z,101446.34
2022-12-31T21:08:39.407Z,101444.56
2022-12-31T21:11:28.772Z,101445.91
2022-12-31T21:13:55.647Z,101443.91
2022-12-31T21:16:22.193Z,101437.63
2022-12-31T21:18:48.644Z,101443.78
2022-12-31T21:21:15.104Z,101452.69
2022-12-31T21:23:41.581Z,101451.56
2022-12-31T21:26:08.417Z,101454.66
2022-12-31T21:28:37.373Z,101466.03
2022-12-31T21:31:04.695Z,101472.66
2022-12-31T21:33:34.079Z,101483.91
2022-12-31T21:36:04.572Z,101475.19
2022-12-31T21:38:31.482Z,101481.81
2022-12-31T21:41:01.712Z,101482.84
2022-12-31T21:43:28.137Z,101486.78
2022-12-31T21:46:01.680Z,101494.59
2022-12-31T21:48:28.143Z,101501.66
2022-12-31T21:50:58.150Z,101490.00
2022-12-31T21:53:28.998Z,101495.81
2022-12-31T21:56:09.612Z,101501.72
2022-12-31T21:58:38.884Z,101498.69
2022-12-31T22:01:24.396Z,101500.34
2022-12-31T22:03:50.989Z,101492.88
2022-12-31T22:06:23.732Z,101493.19
2022-12-31T22:08:54.401Z,101506.22
2022-12-31T22:11:21.407Z,101498.41
2022-12-31T22:13:47.980Z,101505.25
2022-12-31T22:16:14.559Z,101505.19
2022-12-31T22:18:42.179Z,101502.81
2022-12-31T22:21:15.567Z,101511.19
2022-12-31T22:23:44.560Z,101496.41
2022-12-31T22:26:12.213Z,101496.44
2022-12-31T22:28:40.003Z,101503.47
2022-12-31T22:31:07.556Z,101497.34
2022-12-31T22:33:34.020Z,101498.69
2022-12-31T22:36:07.412Z,101502.19
2022-12-31T22:38:33.898Z,101501.97
2022-12-31T22:41:00.885Z,101493.38
2022-12-31T22:43:27.337Z,101489.69
2022-12-31T22:45:53.813Z,101488.31
2022-12-31T22:48:20.249Z,101490.56
2022-12-31T22:50:53.797Z,101481.13
2022-12-31T22:53:20.293Z,101472.00
2022-12-31T22:55:46.728Z,101473.97
2022-12-31T22:58:13.126Z,101478.47
2022-12-31T23:00:42.234Z,101473.13
2022-12-31T23:03:08.680Z,101472.44
2022-12-31T23:05:35.253Z,101479.94
2022-12-31T23:08:04.731Z,101479.25
2022-12-31T23:10:53.452Z,101470.06
2022-12-31T23:13:38.461Z,101469.50
2022-12-31T23:16:23.484Z,101462.00
2022-12-31T23:19:08.675Z,101460.44
2022-12-31T23:21:53.938Z,101457.59
2022-12-31T23:24:26.099Z,101459.91
2022-12-31T23:26:52.880Z,101461.63
2022-12-31T23:29:19.360Z,101462.12
2022-12-31T23:31:45.815Z,101464.81
2022-12-31T23:34:12.289Z,101470.72
2022-12-31T23:36:38.756Z,101474.69
2022-12-31T23:39:05.220Z,101474.19
2022-12-31T23:41:31.666Z,101475.78
2022-12-31T23:43:58.135Z,101484.63
2022-12-31T23:46:24.598Z,101481.25
2022-12-31T23:48:51.292Z,101493.28
2022-12-31T23:51:17.738Z,101489.47
2022-12-31T23:53:44.153Z,101483.41
2022-12-31T23:56:19.164Z,101480.00
2022-12-31T23:58:49.372Z,101475.81
